Johnstown, PA

8:34 AM EST on February 27, 2015 (GMT -0500)
Brownstown | Change Station
CLOSE
Current Station
Personal Weather Station
Location: Johnstown, PA
Elevation: 1516 ft
Nearby Weather Stations

Elev 1516 ft 40.34 °N, 78.94 °W | Updated 7 seconds ago

Mostly Cloudy
Mostly Cloudy
9.5 °F
Feels Like 10 °F
N
1.8
Wind Variable Wind from WNW
Gusts 3.5 mph

Today
High -- | Low -- °F
--% Chance of Precip.
Yesterday
High -- | Low -- °F
Precip. -- in
6:52 AM 6:04 PM
Waxing Gibbous, 68% visible
Pressure 30.38 in
Visibility 0.8 miles
Clouds Overcast 800 ft
Windchill 10 °F
Dew Point 5 °F
Humidity 83%
Rainfall 0.00 in
Snow Depth Not available.
UV 0 out of 12
Pollen .50 out of 12
Air Quality Not available.
Flu Activity Not available.
METAR KJST 271254Z AUTO 30004KT 3/4SM -SN BR OVC008 M16/M18 A3024 RMK AO2 SLP287 P0000 T11561178

More Conditions Fewer Conditions

Pressure 30.38 in
Visibility 0.8 miles
Clouds Overcast 800 ft
Windchill 10 °F
Dew Point 5 °F
Humidity 83%
Rainfall 0.00 in
Snow Depth Not available.
UV 0 out of 12
Pollen .50 out of 12
Air Quality Not available.
Flu Activity Not available.
METAR KJST 271254Z AUTO 30004KT 3/4SM -SN BR OVC008 M16/M18 A3024 RMK AO2 SLP287 P0000 T11561178

More Conditions Fewer Conditions

10-Day Weather Forecast

Almanac

Astronomy

Feb. 27, 2015 Rise Set
Actual Time
Civil Twilight
Nautical Twilight
Astronomical Twilight
Moon
Length of Visible Light
Length of Day
Tomorrow will be .
, % of the Moon is Illuminated

Today's Extremes

State Highs State Lows

Community

WunderPhotos

Upload Photos

1,800,673 photos uploaded!

WunderBlogs® & News

Nearby

Air Quality

  Air Quality AQ Index Pollutant
Not available.

Snow Depth

Station Depth Elevation

Earthquake Activity

City Distance Mag. Time & Date
Minimum magnitude displayed is 2.5.

Coastal Water Temperatures

Place Temperature

Nearby Weather Stations